Harshaw, Wisconsin
Current Conditions -  °F | °C
As of 4:53 AM on Friday 24 Oct 2014 (Local Time) from KRHI Reporting Station
Moderate Fog Moderate Fog  
Wind Chill: 39°   Ceiling: 200
Heat Index: 43°   Visibility: 0.5mi
Dew Point: 43°   Wind: 7mph
Humidity: 100%   Direction: 250°WSW
Pressure: 30.01"   Gusts: NA
Location:  45.67°N, 89.66°W
Report Text: KRHI 240953Z AUTO 25006KT 1/2SM FG VV002 06/06 A3001 RMK AO2 SLP172 T00610061
Loading
Personal Weather Stations






























Interactive Weather Map
Tropical Storm Tracking
New forecast layout! Learn more

10-Day Weather Forecast

Advertisements
Track Severe Weather on mobile